Terminal Aerodrome Forecast
Issued by NWS Knoxville/Tri Cities, TN

Home | Current Version | Previous Version | Text Only | Print | Product List | Glossary On
Versions: 1 2 3 4 5 6 7 8 9 10 11 12 13 14 15 16 17 18 19 20 21 22 23 24 25 26 27 28 29 30 31 32
000
FTUS44 KMRX 242322
TAFTYS
TAF
KTYS 242322Z 2500/2524 06004KT P6SM BKN040
     FM250600 00000KT 4SM BR SCT035
     FM250900 00000KT 2SM BR SKC
     FM251000 00000KT 1SM BR SCT002
      TEMPO 2510/2512 1/2SM FG VV002
     FM251230 00000KT 2SM BR SCT002
     FM251330 VRB03KT 5SM BR SCT010
     FM251430 VRB03KT P6SM SCT035=

USA.gov is the U.S. government's official web portal to all federal, state and local government web resources and services.